Time;durP1;ratioP1;P1;durP2;ratioP2;P2;SDS_P1;SDS_P2;PMS_P1;PMS_P2;Temp;Humidity;BMP_temperature;BMP_pressure;BME280_temperature;BME280_humidity;BME280_pressure;Samples;Min_cycle;Max_cycle;Signal;HPM_P1;HPM_P2
2022/01/28 00:04:49;;;;;;;26.42;14.25;;;1.40;99.90;;;;;;5068023;28;20024;-74
2022/01/28 00:07:15;;;;;;;31.42;14.25;;;1.40;99.90;;;;;;5068856;28;20028;-72
2022/01/28 00:09:41;;;;;;;30.50;15.17;;;1.40;99.90;;;;;;5068518;28;20261;-73
2022/01/28 00:12:08;;;;;;;27.57;13.90;;;1.40;99.90;;;;;;5068178;28;20396;-76
2022/01/28 00:14:44;;;;;;;28.95;14.43;;;1.40;99.90;;;;;;5066480;28;20056;-74
2022/01/28 00:38:44;;;;;;;22.52;12.52;;;0.70;99.90;;;;;;5070999;28;20335;-74
2022/01/28 00:41:10;;;;;;;24.65;13.48;;;1.50;99.90;;;;;;5064038;28;20033;-73
2022/01/28 00:43:36;;;;;;;30.55;13.80;;;1.50;99.90;;;;;;5050111;28;20404;-74
2022/01/28 00:46:01;;;;;;;23.80;12.50;;;1.50;99.90;;;;;;5070018;28;20043;-73
2022/01/28 00:48:27;;;;;;;23.37;12.67;;;1.50;99.90;;;;;;5071175;28;20142;-74
2022/01/28 00:50:53;;;;;;;26.13;12.93;;;1.50;99.90;;;;;;5069537;28;20040;-73
2022/01/28 00:53:19;;;;;;;23.63;12.60;;;1.50;99.90;;;;;;5071423;28;20025;-73
2022/01/28 00:55:45;;;;;;;29.20;14.40;;;1.50;99.90;;;;;;5071733;28;20029;-73
2022/01/28 00:58:11;;;;;;;24.20;12.50;;;1.60;99.90;;;;;;5069683;28;20341;-72
2022/01/28 01:00:36;;;;;;;25.02;11.98;;;1.50;99.90;;;;;;5066165;28;20763;-72
2022/01/28 01:03:02;;;;;;;24.20;13.03;;;1.50;99.90;;;;;;5071252;28;20024;-74
2022/01/28 01:05:32;;;;;;;23.37;12.90;;;1.60;99.90;;;;;;5071389;28;20392;-74
2022/01/28 01:07:59;;;;;;;25.63;13.02;;;1.50;99.90;;;;;;5070485;28;20279;-74
2022/01/28 01:10:26;;;;;;;29.88;14.30;;;1.50;99.90;;;;;;5071248;28;20079;-73
2022/01/28 01:12:53;;;;;;;27.15;13.98;;;1.50;99.90;;;;;;5069794;28;20060;-73
2022/01/28 01:15:22;;;;;;;26.13;14.00;;;1.50;99.90;;;;;;5070790;28;20467;-73
2022/01/28 01:18:04;;;;;;;25.88;13.82;;;1.50;99.90;;;;;;5058233;28;20102;-73
2022/01/28 01:20:42;;;;;;;24.83;13.02;;;1.50;99.90;;;;;;5064976;28;20055;-74
2022/01/28 01:23:11;;;;;;;22.88;11.93;;;1.50;99.90;;;;;;5071541;28;20082;-72
2022/01/28 01:25:46;;;;;;;28.02;14.55;;;1.50;99.90;;;;;;5070000;28;20028;-73
2022/01/28 01:28:13;;;;;;;28.60;14.10;;;1.50;99.90;;;;;;5070949;28;20024;-73
2022/01/28 01:30:41;;;;;;;26.73;14.00;;;1.50;99.90;;;;;;5071008;28;20032;-74
2022/01/28 01:33:09;;;;;;;28.95;13.82;;;1.50;99.90;;;;;;5069125;28;20028;-73
2022/01/28 01:35:35;;;;;;;26.13;13.80;;;1.50;99.90;;;;;;5068084;28;20090;-74
2022/01/28 01:38:02;;;;;;;27.38;14.27;;;1.50;99.90;;;;;;5070404;28;20059;-73
2022/01/28 01:40:34;;;;;;;;;;;1.50;99.90;;;;;;5071233;28;20036;-73
2022/01/28 01:43:26;;;;;;;27.55;12.77;;;1.50;99.90;;;;;;5069096;28;19943;-72
2022/01/28 01:53:48;;;;;;;24.23;12.15;;;1.40;99.90;;;;;;5069453;28;20094;-73
2022/01/28 01:56:15;;;;;;;25.37;12.73;;;1.40;99.90;;;;;;5070042;28;20388;-73
2022/01/28 01:58:41;;;;;;;21.75;12.25;;;1.40;99.90;;;;;;5068840;28;20265;-73
2022/01/28 02:01:07;;;;;;;23.48;11.95;;;1.50;99.90;;;;;;5068984;28;20496;-73
2022/01/28 02:03:33;;;;;;;23.38;12.68;;;1.40;99.90;;;;;;5069605;28;20025;-72
2022/01/28 02:06:00;;;;;;;26.00;12.53;;;1.50;99.90;;;;;;5085809;28;20048;-72
2022/01/28 02:08:27;;;;;;;26.13;13.43;;;1.40;99.90;;;;;;5070244;28;20380;-73
2022/01/28 02:10:57;;;;;;;26.75;13.38;;;1.40;99.90;;;;;;5067153;28;20127;-73
2022/01/28 02:13:28;;;;;;;24.70;12.77;;;1.40;99.90;;;;;;5085124;28;20020;-74
2022/01/28 02:15:54;;;;;;;22.77;13.13;;;1.40;99.90;;;;;;5069947;28;20046;-72
2022/01/28 02:18:21;;;;;;;23.27;13.63;;;1.40;99.90;;;;;;5068791;28;20043;-72
2022/01/28 02:20:50;;;;;;;21.92;13.27;;;1.40;99.90;;;;;;5069131;28;20067;-73
2022/01/28 02:23:16;;;;;;;24.95;14.57;;;1.40;99.90;;;;;;5085379;28;20484;-72
2022/01/28 02:25:42;;;;;;;28.50;14.85;;;1.30;99.90;;;;;;5084846;28;20426;-72
2022/01/28 02:28:10;;;;;;;27.00;13.57;;;1.30;99.90;;;;;;5069742;28;20024;-72
2022/01/28 02:30:36;;;;;;;27.50;15.10;;;1.30;99.90;;;;;;5066053;28;20059;-72
2022/01/28 02:33:12;;;;;;;25.10;13.45;;;1.20;99.90;;;;;;5068111;28;20028;-73
2022/01/28 02:35:41;;;;;;;27.02;13.23;;;1.30;99.90;;;;;;5064268;28;20322;-73
2022/01/28 02:38:07;;;;;;;27.90;14.55;;;1.20;99.90;;;;;;5054944;28;20032;-73
2022/01/28 02:40:33;;;;;;;27.33;13.88;;;1.20;99.90;;;;;;5069503;28;20032;-73
2022/01/28 02:43:05;;;;;;;29.20;14.80;;;1.20;99.90;;;;;;5067674;28;20480;-72
2022/01/28 02:45:34;;;;;;;27.33;14.60;;;1.20;99.90;;;;;;5068961;28;20085;-74
2022/01/28 02:48:13;;;;;;;27.25;14.50;;;1.20;99.90;;;;;;5064006;28;20029;-72
2022/01/28 02:50:51;;;;;;;27.90;15.23;;;1.20;99.90;;;;;;5063623;28;20052;-73
2022/01/28 02:53:23;;;;;;;26.35;14.23;;;1.20;99.90;;;;;;5069371;28;20059;-73
2022/01/28 02:55:56;;;;;;;26.95;14.85;;;1.20;99.90;;;;;;5068964;28;20166;-73
2022/01/28 02:58:24;;;;;;;26.42;14.13;;;1.20;99.90;;;;;;5069492;28;20040;-72
2022/01/28 03:00:54;;;;;;;27.20;13.35;;;1.20;99.90;;;;;;5084475;28;20036;-73
2022/01/28 03:03:23;;;;;;;23.35;13.63;;;1.20;99.90;;;;;;5069120;28;20025;-72
2022/01/28 03:05:50;;;;;;;24.98;13.55;;;1.20;99.90;;;;;;5057366;28;20037;-73
2022/01/28 03:08:16;;;;;;;23.80;13.45;;;1.20;99.90;;;;;;5049328;28;20492;-74
2022/01/28 03:16:06;;;;;;;25.73;13.85;;;1.30;99.90;;;;;;5066482;28;20478;-73
2022/01/28 03:18:42;;;;;;;19.60;11.35;;;1.20;99.90;;;;;;5067992;28;20028;-73
2022/01/28 03:21:21;;;;;;;22.27;11.63;;;1.20;99.90;;;;;;5069310;28;20116;-73
2022/01/28 03:23:46;;;;;;;22.02;12.02;;;1.20;99.90;;;;;;5068542;28;20108;-73
2022/01/28 03:26:13;;;;;;;22.88;11.43;;;1.20;99.90;;;;;;5084416;28;20166;-74
2022/01/28 03:28:39;;;;;;;21.45;12.20;;;1.20;99.90;;;;;;5068735;28;20074;-73
2022/01/28 03:31:05;;;;;;;20.88;12.02;;;1.30;99.90;;;;;;5068999;28;20040;-73
2022/01/28 03:33:32;;;;;;;21.43;11.63;;;1.20;99.90;;;;;;5068222;28;20043;-72
2022/01/28 03:36:00;;;;;;;21.13;11.65;;;1.30;99.90;;;;;;5084187;28;20289;-73
2022/01/28 03:38:26;;;;;;;22.65;10.82;;;1.30;99.90;;;;;;5067533;28;20120;-74
2022/01/28 03:40:54;;;;;;;20.83;11.43;;;1.30;99.90;;;;;;5068443;28;20096;-73
2022/01/28 03:43:20;;;;;;;21.23;11.07;;;1.20;99.90;;;;;;5069204;28;20464;-74
2022/01/28 03:45:46;;;;;;;19.43;10.70;;;1.20;99.90;;;;;;5084466;28;20169;-72
2022/01/28 03:48:11;;;;;;;21.17;10.50;;;1.30;99.90;;;;;;5068937;28;20051;-72
2022/01/28 03:50:37;;;;;;;21.80;10.93;;;1.30;99.90;;;;;;5068273;28;20056;-74
2022/01/28 03:53:05;;;;;;;19.70;9.37;;;1.20;99.90;;;;;;5068893;28;20027;-74
2022/01/28 03:55:30;;;;;;;16.38;9.60;;;1.30;99.90;;;;;;5069925;28;20044;-73
2022/01/28 03:57:56;;;;;;;18.10;10.07;;;1.30;99.90;;;;;;5071305;28;20029;-74
2022/01/28 04:00:26;;;;;;;18.60;9.90;;;1.30;99.90;;;;;;5062696;28;20037;-74
2022/01/28 04:03:03;;;;;;;18.75;10.18;;;1.20;99.90;;;;;;5052338;28;20029;-74
2022/01/28 04:13:47;;;;;;;18.25;9.27;;;1.20;99.90;;;;;;5072035;28;20023;-73
2022/01/28 04:18:45;;;;;;;16.85;8.85;;;1.20;99.90;;;;;;5052825;28;20028;-74
2022/01/28 04:21:11;;;;;;;19.70;10.40;;;1.20;99.90;;;;;;5071164;28;20033;-73
2022/01/28 04:23:37;;;;;;;16.52;10.02;;;1.30;99.90;;;;;;5071988;28;20476;-73
2022/01/28 04:26:03;;;;;;;15.83;9.23;;;1.30;99.90;;;;;;5069966;28;20083;-73
2022/01/28 04:28:29;;;;;;;18.90;9.63;;;1.30;99.90;;;;;;5087814;28;20264;-73
2022/01/28 04:30:55;;;;;;;17.90;9.68;;;1.30;99.90;;;;;;5072113;28;20040;-72
2022/01/28 04:33:21;;;;;;;15.82;9.35;;;1.30;99.90;;;;;;5071751;28;20498;-73
2022/01/28 04:35:50;;;;;;;17.77;9.57;;;1.30;99.90;;;;;;5071312;28;20082;-74
2022/01/28 04:38:33;;;;;;;16.63;9.60;;;1.30;99.90;;;;;;5087406;28;20268;-73
2022/01/28 04:43:38;;;;;;;17.13;9.23;;;1.30;99.90;;;;;;5071070;28;20043;-73
2022/01/28 04:46:12;;;;;;;16.75;8.90;;;1.50;99.90;;;;;;5071808;28;20492;-73
2022/01/28 04:48:49;;;;;;;16.60;9.10;;;1.30;99.90;;;;;;5070205;28;20670;-73
2022/01/28 04:51:30;;;;;;;14.82;8.95;;;1.40;99.90;;;;;;5072064;28;20185;-73
2022/01/28 04:54:21;;;;;;;18.08;9.00;;;1.40;99.90;;;;;;5070753;28;20032;-73
2022/01/28 05:05:02;;;;;;;18.67;9.65;;;1.40;99.90;;;;;;5070737;28;20428;-73
2022/01/28 05:13:30;;;;;;;18.20;9.05;;;1.40;99.90;;;;;;5068142;28;20044;-73
2022/01/28 05:29:03;;;;;;;19.23;9.27;;;1.30;99.90;;;;;;5069894;28;20077;-73
2022/01/28 05:31:29;;;;;;;20.48;11.73;;;1.40;99.90;;;;;;5069657;28;20036;-74
2022/01/28 05:33:55;;;;;;;14.37;9.20;;;1.40;99.90;;;;;;5070416;28;20028;-74
2022/01/28 05:36:21;;;;;;;18.33;9.95;;;1.40;99.90;;;;;;5070929;28;20063;-73
2022/01/28 05:38:46;;;;;;;21.38;11.38;;;1.40;99.90;;;;;;5058510;28;20029;-73
2022/01/28 05:41:12;;;;;;;21.20;11.20;;;1.40;99.90;;;;;;5068769;28;20040;-71
2022/01/28 05:43:38;;;;;;;22.93;11.33;;;1.40;99.90;;;;;;5070021;28;20032;-73
2022/01/28 05:46:04;;;;;;;17.90;9.70;;;1.50;99.90;;;;;;5070471;28;20024;-73
2022/01/28 05:48:29;;;;;;;20.93;9.63;;;1.40;99.90;;;;;;5050546;28;20124;-73
2022/01/28 05:50:56;;;;;;;19.90;11.67;;;1.40;99.90;;;;;;5062446;28;20115;-73
2022/01/28 05:53:21;;;;;;;21.63;10.88;;;1.50;99.90;;;;;;5054533;28;20377;-73
2022/01/28 05:55:47;;;;;;;20.73;12.37;;;1.50;99.90;;;;;;5066131;28;20032;-74
2022/01/28 05:58:13;;;;;;;20.70;10.97;;;1.50;99.90;;;;;;5069012;28;20063;-73
2022/01/28 06:00:39;;;;;;;18.23;10.90;;;1.60;99.90;;;;;;5068027;28;20029;-74
2022/01/28 06:03:04;;;;;;;21.23;10.47;;;1.50;99.90;;;;;;5070116;28;20033;-74
2022/01/28 06:05:30;;;;;;;18.13;10.97;;;1.50;99.90;;;;;;5070106;28;20023;-73
2022/01/28 06:08:00;;;;;;;21.55;11.43;;;1.50;99.90;;;;;;5070580;28;20081;-73
2022/01/28 06:10:27;;;;;;;23.17;12.15;;;1.50;99.90;;;;;;5068799;28;20025;-73
2022/01/28 06:12:53;;;;;;;22.15;10.95;;;1.50;99.90;;;;;;5070091;28;20032;-73
2022/01/28 06:15:18;;;;;;;24.17;11.03;;;1.50;99.90;;;;;;5078670;28;20033;-73
2022/01/28 06:17:45;;;;;;;23.77;11.33;;;1.50;99.90;;;;;;5050372;28;20377;-73
2022/01/28 06:20:12;;;;;;;23.92;11.52;;;1.50;99.90;;;;;;5060196;28;20052;-73
2022/01/28 06:22:42;;;;;;;23.60;12.23;;;1.50;99.90;;;;;;5067495;28;20388;-73
2022/01/28 06:25:09;;;;;;;24.02;12.43;;;1.60;99.90;;;;;;5069849;28;20021;-73
2022/01/28 06:27:36;;;;;;;20.02;11.30;;;1.60;99.90;;;;;;5070127;28;20037;-72
2022/01/28 06:30:04;;;;;;;21.75;12.13;;;1.60;99.90;;;;;;5069286;28;20043;-75
2022/01/28 06:32:34;;;;;;;20.55;11.45;;;1.60;99.90;;;;;;5069709;28;20040;-75
2022/01/28 06:35:00;;;;;;;23.48;12.00;;;1.60;99.90;;;;;;5084471;28;20028;-73
2022/01/28 06:37:27;;;;;;;25.88;11.77;;;1.60;99.90;;;;;;5070064;28;20506;-73
2022/01/28 06:39:53;;;;;;;22.90;12.38;;;1.60;99.90;;;;;;5068316;28;20055;-73
2022/01/28 06:42:19;;;;;;;19.87;11.93;;;1.60;99.90;;;;;;5057335;28;20021;-73
2022/01/28 06:44:44;;;;;;;24.30;12.00;;;1.60;99.90;;;;;;5056629;28;20023;-74
2022/01/28 06:47:10;;;;;;;23.70;11.67;;;1.60;99.90;;;;;;5069998;28;20037;-73
2022/01/28 06:49:36;;;;;;;22.97;11.53;;;1.70;99.90;;;;;;5068328;28;20074;-72
2022/01/28 06:52:03;;;;;;;24.65;12.88;;;1.70;99.90;;;;;;5069692;28;20082;-73
2022/01/28 06:54:29;;;;;;;26.75;13.63;;;1.70;99.90;;;;;;5067462;28;20024;-73
2022/01/28 06:56:55;;;;;;;23.63;11.70;;;1.70;99.90;;;;;;5069740;28;20036;-73
2022/01/28 06:59:21;;;;;;;22.50;13.10;;;1.70;99.90;;;;;;5058262;28;20568;-74
2022/01/28 07:01:46;;;;;;;20.63;11.40;;;1.80;99.90;;;;;;5068358;28;20138;-73
2022/01/28 07:04:12;;;;;;;20.20;11.67;;;1.70;99.90;;;;;;5067294;28;20017;-74
2022/01/28 07:06:38;;;;;;;25.23;12.37;;;1.70;99.90;;;;;;5067695;28;20037;-73
2022/01/28 07:09:04;;;;;;;24.03;12.77;;;1.70;99.90;;;;;;5068824;28;20036;-73
2022/01/28 07:11:29;;;;;;;21.67;12.97;;;1.80;99.90;;;;;;5069231;28;20107;-74
2022/01/28 07:13:55;;;;;;;19.77;11.47;;;1.80;99.90;;;;;;5068876;28;20029;-73
2022/01/28 07:16:21;;;;;;;22.53;12.77;;;1.80;99.90;;;;;;5058739;28;20044;-74
2022/01/28 07:18:46;;;;;;;20.47;11.50;;;1.80;99.90;;;;;;5057543;28;20429;-73
2022/01/28 07:21:12;;;;;;;24.90;12.00;;;1.80;99.90;;;;;;5083754;28;20079;-73
2022/01/28 07:23:38;;;;;;;22.60;11.97;;;1.80;99.90;;;;;;5069259;28;20476;-73
2022/01/28 07:26:03;;;;;;;20.83;11.43;;;1.80;99.90;;;;;;5056641;28;20037;-74
2022/01/28 07:28:31;;;;;;;22.07;11.23;;;1.90;99.90;;;;;;5049367;28;20036;-73
2022/01/28 07:30:57;;;;;;;21.83;12.52;;;1.90;99.90;;;;;;5068121;28;20460;-74
2022/01/28 07:33:22;;;;;;;21.13;10.30;;;1.90;99.90;;;;;;5067810;28;20028;-75
2022/01/28 07:35:48;;;;;;;24.73;12.88;;;1.90;99.90;;;;;;5068809;28;20027;-73
2022/01/28 07:38:14;;;;;;;22.03;11.33;;;2.00;99.90;;;;;;5071759;28;20021;-73
2022/01/28 07:40:40;;;;;;;22.37;11.17;;;2.00;99.90;;;;;;5071808;28;20031;-73
2022/01/28 07:43:06;;;;;;;20.00;11.47;;;2.00;99.90;;;;;;5063599;28;20074;-74
2022/01/28 07:45:31;;;;;;;22.52;11.35;;;2.10;99.90;;;;;;5069920;28;20118;-73
2022/01/28 07:47:57;;;;;;;20.40;10.07;;;2.20;99.90;;;;;;5063346;28;20512;-65
2022/01/28 07:50:23;;;;;;;19.37;11.70;;;2.20;99.90;;;;;;5064859;28;20079;-65
2022/01/28 07:52:49;;;;;;;19.23;11.50;;;2.30;99.90;;;;;;5068498;28;20029;-64
2022/01/28 07:55:15;;;;;;;23.77;12.43;;;2.30;99.90;;;;;;5070544;28;20025;-63
2022/01/28 07:57:45;;;;;;;18.95;11.00;;;2.30;99.90;;;;;;5069301;28;20125;-64
2022/01/28 08:00:13;;;;;;;22.33;12.07;;;2.40;99.90;;;;;;5083576;28;20042;-65
2022/01/28 08:02:39;;;;;;;18.35;10.68;;;2.40;99.90;;;;;;5075674;28;20036;-64
2022/01/28 08:05:05;;;;;;;20.98;11.07;;;2.50;99.90;;;;;;5073689;28;20475;-65
2022/01/28 08:07:31;;;;;;;19.55;10.93;;;2.50;99.90;;;;;;5070933;28;20049;-62
2022/01/28 08:09:56;;;;;;;22.37;11.47;;;2.60;99.90;;;;;;5068565;28;20436;-66
2022/01/28 08:12:22;;;;;;;20.87;10.67;;;2.60;99.90;;;;;;5065760;28;20025;-65
2022/01/28 08:14:48;;;;;;;19.90;11.30;;;2.80;99.90;;;;;;5073400;28;20067;-66
2022/01/28 08:17:14;;;;;;;23.30;10.63;;;2.70;99.90;;;;;;5072574;28;20032;-65
2022/01/28 08:19:40;;;;;;;18.10;10.17;;;2.70;99.90;;;;;;5067374;28;20033;-65
2022/01/28 08:22:06;;;;;;;21.33;9.50;;;2.60;99.90;;;;;;5070271;28;20020;-65
2022/01/28 08:24:32;;;;;;;18.65;10.20;;;2.60;99.90;;;;;;5068958;28;20257;-65
2022/01/28 08:26:57;;;;;;;22.93;11.07;;;2.60;99.90;;;;;;5070293;28;21535;-66
2022/01/28 08:29:23;;;;;;;18.23;9.77;;;2.60;99.90;;;;;;5067449;28;20040;-65
2022/01/28 08:31:50;;;;;;;23.83;11.30;;;2.60;99.90;;;;;;5069906;28;20086;-63
2022/01/28 08:34:16;;;;;;;16.77;8.90;;;2.60;99.90;;;;;;5067100;28;20036;-63
2022/01/28 08:36:42;;;;;;;19.50;10.35;;;2.60;99.90;;;;;;5070775;28;20025;-63
2022/01/28 08:39:10;;;;;;;18.50;10.30;;;2.70;99.90;;;;;;5067240;28;20036;-63
2022/01/28 08:41:39;;;;;;;16.42;9.30;;;2.70;99.90;;;;;;5068218;28;20281;-64
2022/01/28 08:44:05;;;;;;;16.05;9.10;;;2.70;99.90;;;;;;5065889;28;20023;-64
2022/01/28 08:46:31;;;;;;;16.10;9.65;;;2.70;99.90;;;;;;5063001;28;20041;-64
2022/01/28 08:48:56;;;;;;;15.27;9.35;;;2.60;99.90;;;;;;5067417;28;20066;-64
2022/01/28 08:51:23;;;;;;;17.67;9.70;;;2.60;99.90;;;;;;5069771;28;20036;-63
2022/01/28 08:53:49;;;;;;;;;;;2.60;99.90;;;;;;5071261;28;20782;-62
2022/01/28 08:56:15;;;;;;;16.92;9.13;;;2.60;99.90;;;;;;5070984;28;20011;-62
2022/01/28 08:58:40;;;;;;;17.80;9.80;;;2.60;99.90;;;;;;5061750;28;20112;-63
2022/01/28 09:01:06;;;;;;;15.43;9.10;;;2.60;99.90;;;;;;5065711;28;20426;-64
2022/01/28 09:03:33;;;;;;;15.63;8.77;;;2.60;99.90;;;;;;5065161;28;20182;-66
2022/01/28 09:05:59;;;;;;;19.55;9.77;;;2.60;99.90;;;;;;5064152;28;20063;-63
2022/01/28 09:08:25;;;;;;;17.92;10.43;;;2.70;99.90;;;;;;5066003;28;20029;-65
2022/01/28 09:10:59;;;;;;;16.48;9.93;;;2.60;99.90;;;;;;5082798;28;20083;-63
2022/01/28 09:13:30;;;;;;;20.30;10.68;;;2.60;99.90;;;;;;5066199;28;20040;-63
2022/01/28 09:15:57;;;;;;;16.65;9.85;;;2.60;99.90;;;;;;5068112;28;20040;-66
2022/01/28 09:18:24;;;;;;;18.08;10.75;;;2.50;99.90;;;;;;5068956;28;20366;-64
2022/01/28 09:20:51;;;;;;;18.00;9.48;;;2.60;99.90;;;;;;5070179;28;20032;-66
2022/01/28 09:23:17;;;;;;;16.45;9.63;;;2.60;99.90;;;;;;5067978;28;20025;-65
2022/01/28 09:25:43;;;;;;;18.63;9.90;;;2.60;99.90;;;;;;5068692;28;20046;-65
2022/01/28 09:28:09;;;;;;;18.42;9.77;;;2.60;99.90;;;;;;5067789;28;20138;-64
2022/01/28 09:30:35;;;;;;;19.97;11.17;;;2.70;99.90;;;;;;5060682;28;20060;-63
2022/01/28 09:33:03;;;;;;;17.37;9.37;;;2.70;99.90;;;;;;5058913;28;20060;-65
2022/01/28 09:35:29;;;;;;;16.80;9.18;;;2.70;99.90;;;;;;5066381;28;20024;-63
2022/01/28 09:37:54;;;;;;;15.60;9.27;;;2.80;99.90;;;;;;5066420;28;20337;-64
2022/01/28 09:40:21;;;;;;;17.13;9.27;;;2.80;99.90;;;;;;5065273;28;20029;-63
2022/01/28 09:42:48;;;;;;;18.02;9.25;;;2.90;99.90;;;;;;5064058;28;20496;-63
2022/01/28 09:45:21;;;;;;;16.02;9.32;;;2.90;99.90;;;;;;5064196;28;20029;-64
2022/01/28 09:47:47;;;;;;;18.48;9.85;;;3.00;99.90;;;;;;5067598;28;20067;-63
2022/01/28 09:50:22;;;;;;;16.42;9.20;;;3.10;99.90;;;;;;5067899;28;20067;-65
2022/01/28 09:52:52;;;;;;;15.82;9.18;;;3.20;99.90;;;;;;5069979;28;20354;-63
2022/01/28 09:55:19;;;;;;;16.52;10.18;;;3.20;99.90;;;;;;5068893;28;20024;-64
2022/01/28 09:57:49;;;;;;;14.88;9.10;;;3.30;99.90;;;;;;5069371;28;20077;-64
2022/01/28 10:00:19;;;;;;;17.88;10.55;;;3.50;99.90;;;;;;5074745;28;20044;-62
2022/01/28 10:02:55;;;;;;;17.27;9.73;;;3.80;99.90;;;;;;5069345;28;20047;-65
2022/01/28 10:05:25;;;;;;;20.35;11.00;;;4.10;99.90;;;;;;5064712;28;20120;-65
2022/01/28 10:08:10;;;;;;;16.65;9.65;;;4.30;99.90;;;;;;5069111;28;20036;-65
2022/01/28 10:10:54;;;;;;;15.50;8.98;;;4.20;99.90;;;;;;5066716;28;20035;-64
2022/01/28 10:13:44;;;;;;;16.15;8.93;;;4.10;99.90;;;;;;5065123;28;20040;-65
2022/01/28 10:16:15;;;;;;;14.95;8.93;;;3.90;99.90;;;;;;5065615;28;20028;-65
2022/01/28 10:18:45;;;;;;;13.88;8.63;;;3.80;99.90;;;;;;5067272;28;20028;-66
2022/01/28 10:21:21;;;;;;;13.63;8.80;;;3.70;99.90;;;;;;5065273;28;20021;-63
2022/01/28 10:24:17;;;;;;;15.82;8.63;;;3.60;99.90;;;;;;5067781;28;20028;-62
2022/01/28 10:26:47;;;;;;;16.90;9.48;;;3.60;99.90;;;;;;5079151;28;20094;-67
2022/01/28 10:29:23;;;;;;;15.10;8.75;;;3.60;99.90;;;;;;5065547;28;20032;-63
2022/01/28 10:31:53;;;;;;;17.17;9.93;;;3.60;99.90;;;;;;5063003;28;20456;-67
2022/01/28 10:34:21;;;;;;;18.65;9.13;;;3.60;99.90;;;;;;5063545;28;20059;-63
2022/01/28 10:36:50;;;;;;;18.05;10.15;;;3.60;99.90;;;;;;5062977;28;20247;-64
2022/01/28 10:39:22;;;;;;;15.05;8.73;;;3.50;99.90;;;;;;5065408;28;20116;-65
2022/01/28 10:41:53;;;;;;;17.75;9.63;;;3.50;99.90;;;;;;5061043;28;20684;-66
2022/01/28 10:44:20;;;;;;;15.93;9.40;;;4.00;99.90;;;;;;5061869;28;20124;-63
2022/01/28 10:46:57;;;;;;;16.20;9.38;;;3.60;99.90;;;;;;5064929;28;20031;-63
2022/01/28 10:49:27;;;;;;;;;;;3.60;99.90;;;;;;5065413;28;20637;-65
2022/01/28 10:51:53;;;;;;;15.63;9.77;;;3.50;99.90;;;;;;5066523;28;19909;-64
2022/01/28 10:54:21;;;;;;;18.07;9.63;;;3.50;99.90;;;;;;5066319;28;20045;-65
2022/01/28 10:56:53;;;;;;;15.88;9.35;;;3.50;99.90;;;;;;5066109;28;20055;-66
2022/01/28 10:59:21;;;;;;;20.75;9.52;;;3.50;99.90;;;;;;5065877;28;20103;-63
2022/01/28 11:01:47;;;;;;;17.65;10.25;;;3.50;99.90;;;;;;5064157;28;20529;-63
2022/01/28 11:04:14;;;;;;;19.02;10.57;;;3.60;99.90;;;;;;5063262;28;20111;-65
2022/01/28 11:06:42;;;;;;;17.80;10.32;;;3.80;99.90;;;;;;5065548;28;20048;-65
2022/01/28 11:09:09;;;;;;;16.60;9.02;;;3.90;99.90;;;;;;5065678;28;20134;-63
2022/01/28 11:11:35;;;;;;;14.15;9.07;;;4.30;99.90;;;;;;5066721;28;20070;-63
2022/01/28 11:14:02;;;;;;;18.27;9.82;;;4.60;99.90;;;;;;5064589;28;20021;-64
2022/01/28 11:16:28;;;;;;;15.68;8.75;;;4.80;99.90;;;;;;5064706;28;20436;-63
2022/01/28 11:18:55;;;;;;;15.25;8.95;;;5.10;99.90;;;;;;5064681;28;20028;-63
2022/01/28 11:21:30;;;;;;;14.52;8.73;;;5.50;99.90;;;;;;5066563;28;20027;-65
2022/01/28 11:24:29;;;;;;;15.68;8.85;;;5.80;99.90;;;;;;5066948;28;20036;-65
2022/01/28 11:27:03;;;;;;;14.90;8.95;;;6.00;99.90;;;;;;5071554;28;20048;-63
2022/01/28 11:29:29;;;;;;;16.05;8.98;;;5.90;99.90;;;;;;5066531;28;20472;-64
2022/01/28 11:32:08;;;;;;;16.27;9.47;;;5.60;99.90;;;;;;5068878;28;20028;-63
2022/01/28 11:34:34;;;;;;;16.65;8.57;;;5.40;99.90;;;;;;5069007;28;20288;-64
2022/01/28 11:37:03;;;;;;;17.33;8.70;;;5.00;99.90;;;;;;5068049;28;20044;-63
2022/01/28 11:39:35;;;;;;;14.88;9.20;;;4.70;99.90;;;;;;5065972;28;20037;-63
2022/01/28 11:42:18;;;;;;;13.13;8.40;;;4.60;99.90;;;;;;5063810;28;20040;-62
2022/01/28 11:44:51;;;;;;;11.75;7.55;;;4.40;99.90;;;;;;5065630;28;20025;-65
2022/01/28 11:47:35;;;;;;;13.80;8.68;;;4.40;99.90;;;;;;5063448;28;20024;-63
2022/01/28 11:50:15;;;;;;;14.30;8.80;;;4.50;99.90;;;;;;5067044;28;20465;-63
2022/01/28 11:52:44;;;;;;;14.27;8.07;;;4.60;99.90;;;;;;5068451;28;20029;-71
2022/01/28 11:55:28;;;;;;;14.23;8.48;;;4.50;99.90;;;;;;5067591;28;20040;-65
2022/01/28 11:57:57;;;;;;;14.70;8.85;;;4.50;99.90;;;;;;5067701;28;20368;-64
2022/01/28 12:00:23;;;;;;;13.15;7.35;;;4.40;99.90;;;;;;5066513;28;20052;-65
2022/01/28 12:02:51;;;;;;;12.88;7.20;;;4.40;99.90;;;;;;5068781;28;20017;-64
2022/01/28 12:05:46;;;;;;;12.65;7.05;;;4.40;99.90;;;;;;5066683;28;20033;-63
2022/01/28 12:08:13;;;;;;;12.88;6.72;;;4.30;99.90;;;;;;5057102;28;20118;-63
2022/01/28 12:10:43;;;;;;;11.15;6.85;;;4.20;99.90;;;;;;5064757;28;20024;-63
2022/01/28 12:13:16;;;;;;;11.57;6.50;;;4.20;99.90;;;;;;5062874;28;20461;-62
2022/01/28 12:16:12;;;;;;;12.15;7.30;;;4.10;99.90;;;;;;5065858;28;20037;-63
2022/01/28 12:18:45;;;;;;;10.88;6.60;;;4.10;99.90;;;;;;5067794;28;20032;-61
2022/01/28 12:21:22;;;;;;;11.95;7.78;;;4.10;99.90;;;;;;5071373;28;20396;-63
2022/01/28 12:23:50;;;;;;;13.48;7.47;;;4.10;99.90;;;;;;5068486;28;20145;-63
2022/01/28 12:26:18;;;;;;;11.50;6.75;;;4.10;99.90;;;;;;5071185;28;20047;-63
2022/01/28 12:28:49;;;;;;;11.32;6.75;;;4.10;99.90;;;;;;5070107;28;20028;-63
2022/01/28 12:31:19;;;;;;;13.15;7.32;;;4.00;99.90;;;;;;5070871;28;20032;-63
2022/01/28 12:33:48;;;;;;;10.73;7.13;;;3.90;99.90;;;;;;5068928;28;20037;-64
2022/01/28 12:36:18;;;;;;;14.77;6.45;;;3.90;99.90;;;;;;5070989;28;20025;-63
2022/01/28 12:38:58;;;;;;;14.50;7.60;;;3.90;99.90;;;;;;5070817;28;20016;-64
2022/01/28 12:41:25;;;;;;;11.27;6.90;;;3.90;99.90;;;;;;5068587;28;20025;-68
2022/01/28 12:43:52;;;;;;;13.68;6.90;;;3.90;99.90;;;;;;5067123;28;20340;-63
2022/01/28 12:46:18;;;;;;;9.68;6.55;;;3.90;99.90;;;;;;5067281;28;20149;-65
2022/01/28 12:48:54;;;;;;;10.32;6.70;;;4.00;99.90;;;;;;5071204;28;20110;-62
2022/01/28 12:51:22;;;;;;;9.77;5.93;;;4.00;99.90;;;;;;5068240;28;20736;-65
2022/01/28 12:53:54;;;;;;;9.25;6.20;;;4.00;99.90;;;;;;5070062;28;20471;-65
2022/01/28 12:56:29;;;;;;;11.10;6.55;;;4.00;99.90;;;;;;5070747;28;20173;-64
2022/01/28 12:58:55;;;;;;;9.75;5.85;;;4.00;99.90;;;;;;5068522;28;20044;-65
2022/01/28 13:01:21;;;;;;;11.83;6.73;;;3.90;99.90;;;;;;5072548;28;20071;-64
2022/01/28 13:03:53;;;;;;;11.80;7.03;;;3.90;99.90;;;;;;5070747;28;20894;-63
2022/01/28 13:06:40;;;;;;;11.93;6.32;;;3.90;99.90;;;;;;5070360;28;20036;-63
2022/01/28 13:09:18;;;;;;;12.40;6.63;;;3.90;99.90;;;;;;5061627;28;20302;-66
2022/01/28 13:11:51;;;;;;;12.60;7.75;;;3.80;99.90;;;;;;5070014;28;20034;-63
2022/01/28 13:14:27;;;;;;;9.43;5.30;;;3.80;99.90;;;;;;5070905;28;20037;-63
2022/01/28 13:16:54;;;;;;;11.30;6.97;;;3.90;99.90;;;;;;5070991;28;20071;-64
2022/01/28 13:19:20;;;;;;;9.95;6.40;;;3.90;99.90;;;;;;5070585;28;20475;-63
2022/01/28 13:21:48;;;;;;;11.00;5.88;;;4.00;99.90;;;;;;5070612;28;20050;-64
2022/01/28 13:24:19;;;;;;;11.30;6.05;;;4.00;99.90;;;;;;5070466;28;20111;-65
2022/01/28 13:27:06;;;;;;;10.77;5.90;;;4.00;99.90;;;;;;5068252;28;20407;-63
2022/01/28 13:29:40;;;;;;;10.10;5.85;;;3.90;99.90;;;;;;5068919;28;20040;-64
2022/01/28 13:32:12;;;;;;;11.45;5.55;;;3.90;99.90;;;;;;5068305;28;20028;-65
2022/01/28 13:35:00;;;;;;;8.60;5.35;;;3.80;99.90;;;;;;5068061;28;20047;-63
2022/01/28 13:37:49;;;;;;;12.40;5.53;;;3.80;99.90;;;;;;5067102;28;20038;-65
2022/01/28 13:40:18;;;;;;;10.05;6.35;;;3.80;99.90;;;;;;5062903;28;20036;-63
2022/01/28 13:42:59;;;;;;;13.30;6.82;;;3.70;99.90;;;;;;5067818;28;20029;-64
2022/01/28 13:45:55;;;;;;;12.95;7.15;;;3.70;99.90;;;;;;5067393;28;20059;-64
2022/01/28 13:48:34;;;;;;;61.53;32.88;;;3.70;99.90;;;;;;5067648;28;20449;-64
2022/01/28 13:51:04;;;;;;;12.25;7.10;;;3.80;99.90;;;;;;5068925;28;20055;-63
2022/01/28 13:56:02;;;;;;;10.67;6.80;;;3.80;99.90;;;;;;5068956;28;20025;-64
2022/01/28 13:58:29;;;;;;;13.30;6.53;;;3.80;99.90;;;;;;5069298;28;20032;-63
2022/01/28 14:00:55;;;;;;;11.00;6.78;;;3.70;99.90;;;;;;5068282;28;20021;-63
2022/01/28 14:03:23;;;;;;;14.27;7.32;;;3.60;99.90;;;;;;5068651;28;20032;-63
2022/01/28 14:05:52;;;;;;;13.55;8.15;;;3.30;99.90;;;;;;5066996;28;20041;-67
2022/01/28 14:08:46;;;;;;;13.38;7.38;;;3.60;99.90;;;;;;5068122;28;20534;-64
2022/01/28 14:11:35;;;;;;;12.13;7.93;;;3.60;99.90;;;;;;5066307;28;20024;-63
2022/01/28 14:14:14;;;;;;;10.63;7.15;;;3.50;99.90;;;;;;5065047;28;20302;-65
2022/01/28 14:16:40;;;;;;;14.57;8.00;;;3.40;99.90;;;;;;5067336;28;20025;-63